createdAt,value
2023-02-22T00:00:59.871Z,80.87
2023-02-22T00:03:32.431Z,98.57
2023-02-22T00:06:05.216Z,80.13
2023-02-22T00:08:36.626Z,84.27
2023-02-22T00:11:09.079Z,90.43
2023-02-22T00:13:37.874Z,78.30
2023-02-22T00:16:05.592Z,83.23
2023-02-22T00:18:32.687Z,86.00
2023-02-22T00:21:01.422Z,88.60
2023-02-22T00:23:31.114Z,83.40
2023-02-22T00:26:00.180Z,77.67
2023-02-22T00:28:27.955Z,92.73
2023-02-22T00:30:55.103Z,82.07
2023-02-22T00:33:23.254Z,79.20
2023-02-22T00:35:50.487Z,77.07
2023-02-22T00:38:19.534Z,96.20
2023-02-22T00:40:46.623Z,78.80
2023-02-22T00:43:14.365Z,82.77
2023-02-22T00:45:42.440Z,92.20
2023-02-22T00:48:10.472Z,86.07
2023-02-22T00:50:37.990Z,78.03
2023-02-22T00:53:07.346Z,85.30
2023-02-22T00:55:36.734Z,96.73
2023-02-22T00:58:05.270Z,84.27
2023-02-22T01:00:39.932Z,83.63
2023-02-22T01:03:10.550Z,91.40
2023-02-22T01:05:38.816Z,90.33
2023-02-22T01:08:08.549Z,77.40
2023-02-22T01:10:37.043Z,92.27
2023-02-22T01:13:08.897Z,94.83
2023-02-22T01:15:39.327Z,87.77
2023-02-22T01:18:08.020Z,83.63
2023-02-22T01:20:35.266Z,83.90
2023-02-22T01:23:07.105Z,79.17
2023-02-22T01:25:35.057Z,79.93
2023-02-22T01:28:03.574Z,80.53
2023-02-22T01:30:34.298Z,83.53
2023-02-22T01:33:04.025Z,82.20
2023-02-22T01:35:35.010Z,78.43
2023-02-22T01:38:02.327Z,89.53
2023-02-22T01:40:35.908Z,78.40
2023-02-22T01:43:15.576Z,77.40
2023-02-22T01:46:00.761Z,79.33
2023-02-22T01:48:45.877Z,85.77
2023-02-22T01:51:28.287Z,75.77
2023-02-22T01:53:59.247Z,73.47
2023-02-22T01:56:29.427Z,95.83
2023-02-22T01:59:06.899Z,83.03
2023-02-22T02:01:36.937Z,81.80
2023-02-22T02:04:10.624Z,80.10
2023-02-22T02:06:38.843Z,80.13
2023-02-22T02:09:17.788Z,84.93
2023-02-22T02:11:46.320Z,82.67
2023-02-22T02:14:14.331Z,77.60
2023-02-22T02:16:45.884Z,83.43
2023-02-22T02:19:46.239Z,94.97
2023-02-22T02:22:47.126Z,75.37
2023-02-22T02:25:54.679Z,79.37
2023-02-22T02:28:51.087Z,71.97
2023-02-22T02:31:54.994Z,79.87
2023-02-22T02:34:35.990Z,80.80
2023-02-22T02:37:15.648Z,84.70
2023-02-22T02:39:57.515Z,94.97
2023-02-22T02:42:34.357Z,75.43
2023-02-22T02:45:18.573Z,80.03
2023-02-22T02:47:53.490Z,85.13
2023-02-22T02:50:25.594Z,80.73
2023-02-22T02:52:55.801Z,90.30
2023-02-22T02:55:23.525Z,82.43
2023-02-22T02:57:50.485Z,74.30
2023-02-22T03:00:24.977Z,90.00
2023-02-22T03:03:06.252Z,82.63
2023-02-22T03:06:40.439Z,74.87
2023-02-22T03:09:21.522Z,85.33
2023-02-22T03:12:08.361Z,77.77
2023-02-22T03:14:38.676Z,84.57
2023-02-22T03:17:19.249Z,76.40
2023-02-22T03:19:52.580Z,77.53
2023-02-22T03:22:48.112Z,79.37
2023-02-22T03:25:34.205Z,87.17
2023-02-22T03:28:07.622Z,74.73
2023-02-22T03:30:50.969Z,83.47
2023-02-22T03:33:44.734Z,79.13
2023-02-22T03:36:21.115Z,89.97
2023-02-22T03:38:50.310Z,87.00
2023-02-22T03:41:25.176Z,79.23
2023-02-22T03:44:14.240Z,90.23
2023-02-22T03:46:42.894Z,78.03
2023-02-22T03:49:22.224Z,83.37
2023-02-22T03:51:49.212Z,83.17
2023-02-22T03:54:16.739Z,78.27
2023-02-22T03:57:24.972Z,85.33
2023-02-22T03:59:51.880Z,74.00
2023-02-22T04:02:19.560Z,94.77
2023-02-22T04:04:47.607Z,95.07
2023-02-22T04:07:14.988Z,70.80
2023-02-22T04:09:41.969Z,83.07
2023-02-22T04:12:09.063Z,81.87
2023-02-22T04:14:36.092Z,78.10
2023-02-22T04:17:03.065Z,75.47
2023-02-22T04:19:30.064Z,86.47
2023-02-22T04:21:57.065Z,76.23
2023-02-22T04:24:24.184Z,75.70
2023-02-22T04:26:51.109Z,76.40
2023-02-22T04:29:18.059Z,79.63
2023-02-22T04:31:45.159Z,70.73
2023-02-22T04:34:12.369Z,74.20
2023-02-22T04:36:39.426Z,75.03
2023-02-22T04:39:06.364Z,83.80
2023-02-22T04:41:34.544Z,76.77
2023-02-22T04:44:01.535Z,77.47
2023-02-22T04:46:28.700Z,86.70
2023-02-22T04:48:55.722Z,90.07
2023-02-22T04:51:22.678Z,73.40
2023-02-22T04:53:49.747Z,69.53
2023-02-22T04:56:20.351Z,75.77
2023-02-22T04:58:47.924Z,83.53
2023-02-22T05:01:16.893Z,71.10
2023-02-22T05:03:44.361Z,79.03
2023-02-22T05:06:12.492Z,90.43
2023-02-22T05:08:39.476Z,74.13
2023-02-22T05:11:06.881Z,75.43
2023-02-22T05:13:33.793Z,75.73
2023-02-22T05:16:00.899Z,84.57
2023-02-22T05:18:28.026Z,69.03
2023-02-22T05:20:55.008Z,76.77
2023-02-22T05:23:21.931Z,77.33
2023-02-22T05:25:48.997Z,92.70
2023-02-22T05:28:16.761Z,77.43
2023-02-22T05:30:43.843Z,72.83
2023-02-22T05:33:11.373Z,113.53
2023-02-22T05:35:38.298Z,110.67
2023-02-22T05:38:06.839Z,78.60
2023-02-22T05:40:35.028Z,98.03
2023-02-22T05:43:02.889Z,89.40
2023-02-22T05:45:38.749Z,73.03
2023-02-22T05:48:15.949Z,69.83
2023-02-22T05:50:45.659Z,81.67
2023-02-22T05:53:12.641Z,66.33
2023-02-22T05:55:40.253Z,71.13
2023-02-22T05:58:07.232Z,71.23
2023-02-22T06:00:34.195Z,88.13
2023-02-22T06:03:08.097Z,81.50
2023-02-22T06:05:36.325Z,69.27
2023-02-22T06:08:05.956Z,80.93
2023-02-22T06:10:33.733Z,81.90
2023-02-22T06:13:03.473Z,74.73
2023-02-22T06:15:30.639Z,69.07
2023-02-22T06:17:58.883Z,75.37
2023-02-22T06:20:28.979Z,80.50
2023-02-22T06:22:58.517Z,78.30
2023-02-22T06:25:31.501Z,88.17
2023-02-22T06:28:00.382Z,77.60
2023-02-22T06:30:28.997Z,93.63
2023-02-22T06:32:56.408Z,104.50
2023-02-22T06:35:23.748Z,74.30
2023-02-22T06:37:51.009Z,89.30
2023-02-22T06:40:18.305Z,69.10
2023-02-22T06:42:49.204Z,85.50
2023-02-22T06:45:18.241Z,75.53
2023-02-22T06:47:45.983Z,80.40
2023-02-22T06:52:53.177Z,68.93
2023-02-22T06:55:27.415Z,78.43
2023-02-22T06:57:54.441Z,76.37
2023-02-22T07:00:25.262Z,74.47
2023-02-22T07:02:53.902Z,70.37
2023-02-22T07:05:23.063Z,104.03
2023-02-22T07:07:55.501Z,72.70
2023-02-22T07:10:30.093Z,79.27
2023-02-22T07:12:57.295Z,71.43
2023-02-22T07:15:28.061Z,77.47
2023-02-22T07:17:55.644Z,72.20
2023-02-22T07:20:24.690Z,74.87
2023-02-22T07:22:52.045Z,78.50
2023-02-22T07:25:20.179Z,72.33
2023-02-22T07:27:48.685Z,77.87
2023-02-22T07:30:20.846Z,76.20
2023-02-22T07:32:48.122Z,72.67
2023-02-22T07:35:28.623Z,72.77
2023-02-22T07:37:58.591Z,69.90
2023-02-22T07:40:27.125Z,70.97
2023-02-22T07:43:01.305Z,73.80
2023-02-22T07:45:34.720Z,70.43
2023-02-22T07:48:04.203Z,72.97
2023-02-22T07:50:33.444Z,76.17
2023-02-22T07:53:06.632Z,75.73
2023-02-22T07:55:34.694Z,80.43
2023-02-22T07:58:05.930Z,77.63
2023-02-22T08:00:39.321Z,76.10
2023-02-22T08:03:14.720Z,79.03
2023-02-22T08:05:51.641Z,81.90
2023-02-22T08:08:20.065Z,86.33
2023-02-22T08:10:48.733Z,81.27
2023-02-22T08:13:16.353Z,72.40
2023-02-22T08:15:44.326Z,77.63
2023-02-22T08:18:15.753Z,74.20
2023-02-22T08:20:45.283Z,75.33
2023-02-22T08:23:14.484Z,77.30
2023-02-22T08:25:41.947Z,79.23
2023-02-22T08:28:13.204Z,83.70
2023-02-22T08:30:42.957Z,85.00
2023-02-22T08:33:14.600Z,81.30
2023-02-22T08:35:42.366Z,87.33
2023-02-22T08:38:27.543Z,81.47
2023-02-22T08:40:55.302Z,92.17
2023-02-22T08:43:23.164Z,90.33
2023-02-22T08:45:52.236Z,94.60
2023-02-22T08:48:20.369Z,93.37
2023-02-22T08:50:47.435Z,109.03
2023-02-22T08:53:16.515Z,95.03
2023-02-22T08:55:44.198Z,96.73
2023-02-22T08:58:12.200Z,88.03
2023-02-22T09:00:41.157Z,94.77
2023-02-22T09:03:13.427Z,98.60
2023-02-22T09:05:41.825Z,93.37
2023-02-22T09:08:08.960Z,97.63
2023-02-22T09:10:36.397Z,97.93
2023-02-22T09:13:05.844Z,102.73
2023-02-22T09:15:36.002Z,101.20
2023-02-22T09:18:04.393Z,113.13
2023-02-22T09:20:31.663Z,112.00
2023-02-22T09:22:59.621Z,112.57
2023-02-22T09:25:27.330Z,106.70
2023-02-22T09:27:55.454Z,120.77
2023-02-22T09:30:32.846Z,119.30
2023-02-22T09:33:07.126Z,113.80
2023-02-22T09:35:36.546Z,111.87
2023-02-22T09:38:08.079Z,118.30
2023-02-22T09:40:45.080Z,123.07
2023-02-22T09:43:21.069Z,123.67
2023-02-22T09:46:22.490Z,127.90
2023-02-22T09:49:06.680Z,124.40
2023-02-22T09:51:44.968Z,124.68
2023-02-22T09:54:43.453Z,129.43
2023-02-22T09:57:21.708Z,141.30
2023-02-22T10:00:13.861Z,131.50
2023-02-22T10:03:33.154Z,132.77
2023-02-22T10:06:06.727Z,139.63
2023-02-22T10:08:34.642Z,138.38
2023-02-22T10:11:19.964Z,138.60
2023-02-22T10:14:24.405Z,153.55
2023-02-22T10:17:06.856Z,141.57
2023-02-22T10:19:54.704Z,150.23
2023-02-22T10:22:59.233Z,153.35
2023-02-22T10:25:29.003Z,154.02
2023-02-22T10:28:03.863Z,160.38
2023-02-22T10:30:39.902Z,152.80
2023-02-22T10:33:21.536Z,161.18
2023-02-22T10:35:51.666Z,156.45
2023-02-22T10:38:24.449Z,170.98
2023-02-22T10:41:20.097Z,181.32
2023-02-22T10:43:47.265Z,173.15
2023-02-22T10:46:18.205Z,192.40
2023-02-22T10:48:49.991Z,178.27
2023-02-22T10:51:17.384Z,192.32
2023-02-22T10:53:45.826Z,189.20
2023-02-22T10:56:25.767Z,198.52
2023-02-22T10:59:04.310Z,204.35
2023-02-22T11:01:34.607Z,208.93
2023-02-22T11:04:15.834Z,205.38
2023-02-22T11:07:00.781Z,202.80
2023-02-22T11:09:29.134Z,220.85
2023-02-22T11:12:19.693Z,228.23
2023-02-22T11:14:46.857Z,215.10
2023-02-22T11:17:28.963Z,226.43
2023-02-22T11:19:56.710Z,237.75
2023-02-22T11:22:41.463Z,242.50
2023-02-22T11:25:09.457Z,257.58
2023-02-22T11:27:47.118Z,256.00
2023-02-22T11:30:29.695Z,270.25
2023-02-22T11:33:11.179Z,270.55
2023-02-22T11:35:52.909Z,262.17
2023-02-22T11:38:32.764Z,272.60
2023-02-22T11:41:23.110Z,287.35
2023-02-22T11:43:52.071Z,292.27
2023-02-22T11:46:23.211Z,324.10
2023-02-22T11:49:09.752Z,324.15
2023-02-22T11:51:57.977Z,320.27
2023-02-22T11:54:46.377Z,323.00
2023-02-22T11:57:50.428Z,340.33
2023-02-22T12:00:48.576Z,355.80
2023-02-22T12:03:51.650Z,344.60
2023-02-22T12:06:54.535Z,351.02
2023-02-22T12:09:36.933Z,373.58
2023-02-22T12:12:27.080Z,379.92
2023-02-22T12:15:09.030Z,388.98
2023-02-22T12:18:29.039Z,393.17
2023-02-22T12:21:01.758Z,412.38
2023-02-22T12:23:46.405Z,432.08
2023-02-22T12:26:53.801Z,424.30
2023-02-22T12:29:47.510Z,423.70
2023-02-22T12:32:48.979Z,441.35
2023-02-22T12:35:54.089Z,458.63
2023-02-22T12:38:46.659Z,473.20
2023-02-22T12:41:29.978Z,482.30
2023-02-22T12:44:14.484Z,510.92
2023-02-22T12:46:53.689Z,499.08
2023-02-22T12:49:38.951Z,510.00
2023-02-22T12:52:25.979Z,533.10
2023-02-22T12:55:06.589Z,542.13
2023-02-22T12:58:16.308Z,536.83
2023-02-22T13:00:57.336Z,538.80
2023-02-22T13:03:39.053Z,546.00
2023-02-22T13:06:42.616Z,553.90
2023-02-22T13:09:33.412Z,551.13
2023-02-22T13:12:21.156Z,559.85
2023-02-22T13:15:14.467Z,574.65
2023-02-22T13:18:02.808Z,583.22
2023-02-22T13:20:42.281Z,572.30
2023-02-22T13:23:31.529Z,574.20
2023-02-22T13:26:11.406Z,577.97
2023-02-22T13:29:05.110Z,579.08
2023-02-22T13:32:10.217Z,584.90
2023-02-22T13:34:56.907Z,573.15
2023-02-22T13:38:19.286Z,582.47
2023-02-22T13:41:31.809Z,567.22
2023-02-22T13:44:33.277Z,557.33
2023-02-22T13:47:44.131Z,549.70
2023-02-22T13:50:29.751Z,555.28
2023-02-22T13:52:59.812Z,557.95
2023-02-22T13:55:34.702Z,565.97
2023-02-22T13:58:11.983Z,561.85
2023-02-22T14:00:42.551Z,559.45
2023-02-22T14:03:16.684Z,548.67
2023-02-22T14:05:46.535Z,558.00
2023-02-22T14:08:19.653Z,550.47
2023-02-22T14:10:56.471Z,549.40
2023-02-22T14:13:55.710Z,545.50
2023-02-22T14:16:34.355Z,545.22
2023-02-22T14:19:09.390Z,545.85
2023-02-22T14:21:36.564Z,538.40
2023-02-22T14:24:12.614Z,543.15
2023-02-22T14:26:41.323Z,550.22
2023-02-22T14:29:08.280Z,540.85
2023-02-22T14:31:43.460Z,540.42
2023-02-22T14:34:13.024Z,545.33
2023-02-22T14:37:08.562Z,535.05
2023-02-22T14:39:46.147Z,540.13
2023-02-22T14:42:24.452Z,534.85
2023-02-22T14:45:05.031Z,545.78
2023-02-22T14:48:04.027Z,544.05
2023-02-22T14:50:52.872Z,531.47
2023-02-22T14:53:44.451Z,536.83
2023-02-22T14:56:25.565Z,530.28
2023-02-22T14:59:08.532Z,525.22
2023-02-22T15:01:53.189Z,517.08
2023-02-22T15:04:31.035Z,522.75
2023-02-22T15:07:01.231Z,535.15
2023-02-22T15:09:34.703Z,535.80
2023-02-22T15:12:05.456Z,537.15
2023-02-22T15:14:39.023Z,540.75
2023-02-22T15:17:18.242Z,520.83
2023-02-22T15:19:48.874Z,525.15
2023-02-22T15:22:26.660Z,505.95
2023-02-22T15:25:03.910Z,505.00
2023-02-22T15:27:37.238Z,495.38
2023-02-22T15:30:09.921Z,494.10
2023-02-22T15:32:50.144Z,486.52
2023-02-22T15:35:26.502Z,478.50
2023-02-22T15:38:18.271Z,472.13
2023-02-22T15:40:45.708Z,461.00
2023-02-22T15:43:20.303Z,467.15
2023-02-22T15:45:47.656Z,466.13
2023-02-22T15:48:15.981Z,472.08
2023-02-22T15:51:13.977Z,461.20
2023-02-22T15:53:51.626Z,466.50
2023-02-22T15:56:31.224Z,447.42
2023-02-22T15:59:12.796Z,440.80
2023-02-22T16:01:46.562Z,447.17
2023-02-22T16:04:27.281Z,434.55
2023-02-22T16:07:16.968Z,434.67
2023-02-22T16:09:50.456Z,422.15
2023-02-22T16:12:28.178Z,421.42
2023-02-22T16:15:00.751Z,417.52
2023-02-22T16:17:37.592Z,408.92
2023-02-22T16:20:14.454Z,400.80
2023-02-22T16:22:49.446Z,400.17
2023-02-22T16:25:19.533Z,401.13
2023-02-22T16:27:52.737Z,405.42
2023-02-22T16:30:25.064Z,399.58
2023-02-22T16:32:55.619Z,390.90
2023-02-22T16:35:29.090Z,381.65
2023-02-22T16:38:02.917Z,392.75
2023-02-22T16:40:47.080Z,379.95
2023-02-22T16:46:11.911Z,449.50
2023-02-22T16:48:46.070Z,440.45
2023-02-22T16:51:27.239Z,421.05
2023-02-22T16:53:56.014Z,391.83
2023-02-22T16:56:31.254Z,391.25
2023-02-22T16:59:06.773Z,377.60
2023-02-22T17:01:35.336Z,390.77
2023-02-22T17:04:02.849Z,381.15
2023-02-22T17:06:31.393Z,384.25
2023-02-22T17:09:04.031Z,388.83
2023-02-22T17:11:31.079Z,409.13
2023-02-22T17:13:58.292Z,373.00
2023-02-22T17:16:25.292Z,337.90
2023-02-22T17:18:52.666Z,359.02
2023-02-22T17:21:19.717Z,333.88
2023-02-22T17:23:47.525Z,299.27
2023-02-22T17:26:17.077Z,293.60
2023-02-22T17:28:44.973Z,301.25
2023-02-22T17:31:22.033Z,280.17
2023-02-22T17:33:51.477Z,285.63
2023-02-22T17:36:19.389Z,280.35
2023-02-22T17:38:46.419Z,287.30
2023-02-22T17:41:13.471Z,277.83
2023-02-22T17:43:40.456Z,280.42
2023-02-22T17:46:08.668Z,282.17
2023-02-22T17:48:36.226Z,279.23
2023-02-22T17:51:10.778Z,282.45
2023-02-22T17:53:39.060Z,298.23
2023-02-22T17:56:20.827Z,275.40
2023-02-22T17:58:55.427Z,316.48
2023-02-22T18:01:41.020Z,277.55
2023-02-22T18:04:17.006Z,275.85
2023-02-22T18:06:44.625Z,283.40
2023-02-22T18:09:12.121Z,274.08
2023-02-22T18:11:39.727Z,289.20
2023-02-22T18:14:10.179Z,276.15
2023-02-22T18:16:39.092Z,283.85
2023-02-22T18:19:06.646Z,275.77
2023-02-22T18:21:33.701Z,272.33
2023-02-22T18:24:00.796Z,284.45
2023-02-22T18:26:28.083Z,266.27
2023-02-22T18:28:57.088Z,266.67
2023-02-22T18:31:24.396Z,265.73
2023-02-22T18:33:53.157Z,270.05
2023-02-22T18:36:23.281Z,256.30
2023-02-22T18:38:54.230Z,272.00
2023-02-22T18:41:27.061Z,270.13
2023-02-22T18:44:00.049Z,262.75
2023-02-22T18:46:27.790Z,277.55
2023-02-22T18:48:56.722Z,260.17
2023-02-22T18:51:24.758Z,256.77
2023-02-22T18:53:56.973Z,254.25
2023-02-22T18:56:29.506Z,263.77
2023-02-22T18:59:02.465Z,278.33
2023-02-22T19:01:31.446Z,264.70
2023-02-22T19:04:00.379Z,248.00
2023-02-22T19:06:27.464Z,250.18
2023-02-22T19:08:54.596Z,253.07
2023-02-22T19:11:24.475Z,246.10
2023-02-22T19:13:56.298Z,251.15
2023-02-22T19:16:26.346Z,237.43
2023-02-22T19:18:57.498Z,259.48
2023-02-22T19:21:28.073Z,242.73
2023-02-22T19:23:56.026Z,238.43
2023-02-22T19:26:28.967Z,372.10
2023-02-22T19:28:58.904Z,229.88
2023-02-22T19:31:31.077Z,262.65
2023-02-22T19:34:06.080Z,217.05
2023-02-22T19:36:33.211Z,214.55
2023-02-22T19:39:03.080Z,222.35
2023-02-22T19:41:31.228Z,211.23
2023-02-22T19:43:59.095Z,247.75
2023-02-22T19:46:26.291Z,243.32
2023-02-22T19:49:16.286Z,210.73
2023-02-22T19:51:53.731Z,220.57
2023-02-22T19:54:22.243Z,207.88
2023-02-22T19:56:51.170Z,224.35
2023-02-22T19:59:23.724Z,197.00
2023-02-22T20:01:54.889Z,213.23
2023-02-22T20:04:23.115Z,206.13
2023-02-22T20:06:54.929Z,203.52
2023-02-22T20:09:47.341Z,229.80
2023-02-22T20:12:14.704Z,214.48
2023-02-22T20:14:43.429Z,203.43
2023-02-22T20:17:10.549Z,209.57
2023-02-22T20:19:41.160Z,196.73
2023-02-22T20:22:08.571Z,192.25
2023-02-22T20:24:35.611Z,204.52
2023-02-22T20:27:02.663Z,220.88
2023-02-22T20:29:29.957Z,250.07
2023-02-22T20:31:59.960Z,258.00
2023-02-22T20:34:31.448Z,248.38
2023-02-22T20:36:59.154Z,210.75
2023-02-22T20:39:26.430Z,198.70
2023-02-22T20:41:54.650Z,207.43
2023-02-22T20:44:22.750Z,194.18
2023-02-22T20:46:49.819Z,181.95
2023-02-22T20:49:20.214Z,196.63
2023-02-22T20:51:49.973Z,198.00
2023-02-22T20:54:17.864Z,200.50
2023-02-22T20:56:46.741Z,190.65
2023-02-22T20:59:17.322Z,191.10
2023-02-22T21:01:44.645Z,184.75
2023-02-22T21:04:12.153Z,177.05
2023-02-22T21:06:40.454Z,188.48
2023-02-22T21:09:15.017Z,187.02
2023-02-22T21:11:42.954Z,189.88
2023-02-22T21:14:16.789Z,184.77
2023-02-22T21:16:46.698Z,180.27
2023-02-22T21:19:25.678Z,195.10
2023-02-22T21:21:58.722Z,185.93
2023-02-22T21:24:28.277Z,185.80
2023-02-22T21:26:58.782Z,184.18
2023-02-22T21:29:26.718Z,186.90
2023-02-22T21:31:54.374Z,191.85
2023-02-22T21:34:22.492Z,182.57
2023-02-22T21:36:50.637Z,182.65
2023-02-22T21:39:20.748Z,186.90
2023-02-22T21:41:51.212Z,187.80
2023-02-22T21:44:19.054Z,183.88
2023-02-22T21:46:49.979Z,192.90
2023-02-22T21:49:17.795Z,203.85
2023-02-22T21:51:45.041Z,189.15
2023-02-22T21:54:13.079Z,193.30
2023-02-22T21:56:42.954Z,196.45
2023-02-22T21:59:23.562Z,184.80
2023-02-22T22:01:56.237Z,199.88
2023-02-22T22:04:30.051Z,194.32
2023-02-22T22:07:00.106Z,202.18
2023-02-22T22:09:37.800Z,193.10
2023-02-22T22:12:05.637Z,204.75
2023-02-22T22:14:34.860Z,198.73
2023-02-22T22:17:05.524Z,212.65
2023-02-22T22:19:39.379Z,220.02
2023-02-22T22:22:07.905Z,198.15
2023-02-22T22:24:35.149Z,196.20
2023-02-22T22:27:06.627Z,217.52
2023-02-22T22:29:34.558Z,209.68
2023-02-22T22:32:02.886Z,202.98
2023-02-22T22:34:30.292Z,203.45
2023-02-22T22:36:58.661Z,208.32
2023-02-22T22:39:26.892Z,203.73
2023-02-22T22:41:54.120Z,205.18
2023-02-22T22:44:24.314Z,211.10
2023-02-22T22:46:54.930Z,208.82
2023-02-22T22:49:24.090Z,207.82
2023-02-22T22:51:51.332Z,208.70
2023-02-22T22:54:18.477Z,214.13
2023-02-22T22:56:45.513Z,204.73
2023-02-22T22:59:13.537Z,207.50
2023-02-22T23:01:45.017Z,211.65
2023-02-22T23:04:18.890Z,209.75
2023-02-22T23:06:51.090Z,202.30
2023-02-22T23:09:30.456Z,200.52
2023-02-22T23:12:24.212Z,197.57
2023-02-22T23:14:52.176Z,208.05
2023-02-22T23:17:31.441Z,191.88
2023-02-22T23:19:58.625Z,194.18
2023-02-22T23:22:25.623Z,204.50
2023-02-22T23:24:52.694Z,202.07
2023-02-22T23:27:19.666Z,199.77
2023-02-22T23:29:47.128Z,200.13
2023-02-22T23:32:14.553Z,200.10
2023-02-22T23:34:41.927Z,207.13
2023-02-22T23:37:10.652Z,197.68
2023-02-22T23:39:38.110Z,194.95
2023-02-22T23:42:05.255Z,193.15
2023-02-22T23:44:32.616Z,198.82
2023-02-22T23:46:59.870Z,193.35
2023-02-22T23:49:38.008Z,208.63
2023-02-22T23:52:08.282Z,192.38
2023-02-22T23:54:40.389Z,189.23
2023-02-22T23:57:08.974Z,193.48
2023-02-22T23:59:37.375Z,193.38
